sensor_id;sensor_type;location;lat;lon;timestamp;P1;durP1;ratioP1;P2;durP2;ratioP2
70825;SDS011;58446;41.490;22.098;2023-03-09T00:00:56;50.65;;;31.70;;
70825;SDS011;58446;41.490;22.098;2023-03-09T00:03:22;71.72;;;40.28;;
70825;SDS011;58446;41.490;22.098;2023-03-09T00:05:53;53.03;;;32.03;;
70825;SDS011;58446;41.490;22.098;2023-03-09T00:08:22;51.72;;;30.88;;
70825;SDS011;58446;41.490;22.098;2023-03-09T00:10:47;50.88;;;29.90;;
70825;SDS011;58446;41.490;22.098;2023-03-09T00:13:21;47.28;;;28.90;;
70825;SDS011;58446;41.490;22.098;2023-03-09T00:15:50;54.43;;;30.53;;
70825;SDS011;58446;41.490;22.098;2023-03-09T00:18:17;53.08;;;29.70;;
70825;SDS011;58446;41.490;22.098;2023-03-09T00:20:43;51.75;;;29.25;;
70825;SDS011;58446;41.490;22.098;2023-03-09T00:23:09;53.27;;;30.83;;
70825;SDS011;58446;41.490;22.098;2023-03-09T00:25:36;49.03;;;28.73;;
70825;SDS011;58446;41.490;22.098;2023-03-09T00:28:02;45.80;;;26.25;;
70825;SDS011;58446;41.490;22.098;2023-03-09T00:30:28;34.17;;;19.48;;
70825;SDS011;58446;41.490;22.098;2023-03-09T00:32:53;43.57;;;23.47;;
70825;SDS011;58446;41.490;22.098;2023-03-09T00:35:19;38.17;;;22.60;;
70825;SDS011;58446;41.490;22.098;2023-03-09T00:37:45;39.70;;;22.00;;
70825;SDS011;58446;41.490;22.098;2023-03-09T00:40:12;45.97;;;25.15;;
70825;SDS011;58446;41.490;22.098;2023-03-09T00:42:42;41.05;;;24.92;;
70825;SDS011;58446;41.490;22.098;2023-03-09T00:45:08;45.47;;;25.55;;
70825;SDS011;58446;41.490;22.098;2023-03-09T00:47:35;42.83;;;24.43;;
70825;SDS011;58446;41.490;22.098;2023-03-09T00:50:00;55.75;;;30.42;;
70825;SDS011;58446;41.490;22.098;2023-03-09T00:52:26;53.03;;;29.40;;
70825;SDS011;58446;41.490;22.098;2023-03-09T00:54:52;54.33;;;31.65;;
70825;SDS011;58446;41.490;22.098;2023-03-09T00:57:20;44.90;;;26.92;;
70825;SDS011;58446;41.490;22.098;2023-03-09T00:59:47;41.38;;;24.60;;
70825;SDS011;58446;41.490;22.098;2023-03-09T01:02:12;41.80;;;22.57;;
70825;SDS011;58446;41.490;22.098;2023-03-09T01:04:38;41.30;;;23.52;;
70825;SDS011;58446;41.490;22.098;2023-03-09T01:07:04;41.23;;;23.90;;
70825;SDS011;58446;41.490;22.098;2023-03-09T01:09:30;43.72;;;25.10;;
70825;SDS011;58446;41.490;22.098;2023-03-09T01:11:56;42.58;;;25.52;;
70825;SDS011;58446;41.490;22.098;2023-03-09T01:14:22;46.97;;;24.50;;
70825;SDS011;58446;41.490;22.098;2023-03-09T01:16:47;43.72;;;26.35;;
70825;SDS011;58446;41.490;22.098;2023-03-09T01:19:13;46.93;;;25.63;;
70825;SDS011;58446;41.490;22.098;2023-03-09T01:21:39;44.83;;;26.67;;
70825;SDS011;58446;41.490;22.098;2023-03-09T01:24:04;43.97;;;25.93;;
70825;SDS011;58446;41.490;22.098;2023-03-09T01:26:30;41.50;;;24.33;;
70825;SDS011;58446;41.490;22.098;2023-03-09T01:28:56;43.15;;;24.73;;
70825;SDS011;58446;41.490;22.098;2023-03-09T01:31:22;37.80;;;23.53;;
70825;SDS011;58446;41.490;22.098;2023-03-09T01:33:48;38.42;;;23.55;;
70825;SDS011;58446;41.490;22.098;2023-03-09T01:36:15;35.97;;;21.83;;
70825;SDS011;58446;41.490;22.098;2023-03-09T01:38:42;35.60;;;22.77;;
70825;SDS011;58446;41.490;22.098;2023-03-09T01:41:09;36.53;;;23.17;;
70825;SDS011;58446;41.490;22.098;2023-03-09T01:43:38;39.78;;;22.80;;
70825;SDS011;58446;41.490;22.098;2023-03-09T01:51:16;38.97;;;21.13;;
70825;SDS011;58446;41.490;22.098;2023-03-09T01:53:43;36.25;;;21.52;;
70825;SDS011;58446;41.490;22.098;2023-03-09T01:56:11;35.33;;;21.25;;
70825;SDS011;58446;41.490;22.098;2023-03-09T01:58:38;38.05;;;20.70;;
70825;SDS011;58446;41.490;22.098;2023-03-09T02:01:03;30.10;;;17.83;;
70825;SDS011;58446;41.490;22.098;2023-03-09T02:03:31;35.35;;;19.42;;
70825;SDS011;58446;41.490;22.098;2023-03-09T02:08:26;31.23;;;18.23;;
70825;SDS011;58446;41.490;22.098;2023-03-09T02:10:56;29.58;;;17.98;;
70825;SDS011;58446;41.490;22.098;2023-03-09T02:13:29;44.05;;;24.38;;
70825;SDS011;58446;41.490;22.098;2023-03-09T02:16:00;35.65;;;20.13;;
70825;SDS011;58446;41.490;22.098;2023-03-09T02:18:26;38.80;;;20.50;;
70825;SDS011;58446;41.490;22.098;2023-03-09T02:29:08;23.10;;;14.70;;
70825;SDS011;58446;41.490;22.098;2023-03-09T02:31:34;27.13;;;17.27;;
70825;SDS011;58446;41.490;22.098;2023-03-09T02:34:00;27.73;;;16.05;;
70825;SDS011;58446;41.490;22.098;2023-03-09T02:36:26;27.38;;;16.23;;
70825;SDS011;58446;41.490;22.098;2023-03-09T02:38:52;24.97;;;15.10;;
70825;SDS011;58446;41.490;22.098;2023-03-09T02:41:17;22.85;;;14.35;;
70825;SDS011;58446;41.490;22.098;2023-03-09T02:43:52;20.52;;;13.90;;
70825;SDS011;58446;41.490;22.098;2023-03-09T02:46:20;20.20;;;12.77;;
70825;SDS011;58446;41.490;22.098;2023-03-09T02:48:45;25.07;;;13.00;;
70825;SDS011;58446;41.490;22.098;2023-03-09T02:51:11;21.90;;;13.30;;
70825;SDS011;58446;41.490;22.098;2023-03-09T02:53:37;20.97;;;13.73;;
70825;SDS011;58446;41.490;22.098;2023-03-09T02:56:03;22.60;;;13.03;;
70825;SDS011;58446;41.490;22.098;2023-03-09T02:58:28;24.63;;;14.30;;
70825;SDS011;58446;41.490;22.098;2023-03-09T03:00:54;27.67;;;13.87;;
70825;SDS011;58446;41.490;22.098;2023-03-09T03:03:20;24.10;;;14.82;;
70825;SDS011;58446;41.490;22.098;2023-03-09T03:05:46;27.30;;;14.40;;
70825;SDS011;58446;41.490;22.098;2023-03-09T03:08:12;23.52;;;13.70;;
70825;SDS011;58446;41.490;22.098;2023-03-09T03:10:38;23.33;;;12.90;;
70825;SDS011;58446;41.490;22.098;2023-03-09T03:13:03;19.92;;;12.57;;
70825;SDS011;58446;41.490;22.098;2023-03-09T03:15:29;16.10;;;9.67;;
70825;SDS011;58446;41.490;22.098;2023-03-09T03:17:55;13.75;;;8.68;;
70825;SDS011;58446;41.490;22.098;2023-03-09T03:20:21;14.17;;;9.83;;
70825;SDS011;58446;41.490;22.098;2023-03-09T03:22:46;13.05;;;8.10;;
70825;SDS011;58446;41.490;22.098;2023-03-09T03:25:13;9.38;;;6.45;;
70825;SDS011;58446;41.490;22.098;2023-03-09T03:27:39;13.57;;;8.50;;
70825;SDS011;58446;41.490;22.098;2023-03-09T03:30:05;14.07;;;7.05;;
70825;SDS011;58446;41.490;22.098;2023-03-09T03:32:31;10.95;;;7.43;;
70825;SDS011;58446;41.490;22.098;2023-03-09T03:34:57;9.37;;;6.40;;
70825;SDS011;58446;41.490;22.098;2023-03-09T03:37:23;11.07;;;7.23;;
70825;SDS011;58446;41.490;22.098;2023-03-09T03:39:49;10.55;;;6.80;;
70825;SDS011;58446;41.490;22.098;2023-03-09T03:42:14;12.83;;;8.50;;
70825;SDS011;58446;41.490;22.098;2023-03-09T03:44:40;20.63;;;12.80;;
70825;SDS011;58446;41.490;22.098;2023-03-09T03:47:06;13.77;;;8.23;;
70825;SDS011;58446;41.490;22.098;2023-03-09T03:49:31;21.02;;;12.80;;
70825;SDS011;58446;41.490;22.098;2023-03-09T03:51:57;30.07;;;13.27;;
70825;SDS011;58446;41.490;22.098;2023-03-09T03:54:22;21.00;;;11.40;;
70825;SDS011;58446;41.490;22.098;2023-03-09T03:56:48;20.53;;;11.50;;
70825;SDS011;58446;41.490;22.098;2023-03-09T03:59:14;17.73;;;11.00;;
70825;SDS011;58446;41.490;22.098;2023-03-09T04:01:39;21.65;;;11.77;;
70825;SDS011;58446;41.490;22.098;2023-03-09T04:04:05;20.30;;;11.13;;
70825;SDS011;58446;41.490;22.098;2023-03-09T04:06:31;23.95;;;12.75;;
70825;SDS011;58446;41.490;22.098;2023-03-09T04:08:57;22.70;;;11.90;;
70825;SDS011;58446;41.490;22.098;2023-03-09T04:11:23;24.20;;;13.55;;
70825;SDS011;58446;41.490;22.098;2023-03-09T04:13:51;23.03;;;11.90;;
70825;SDS011;58446;41.490;22.098;2023-03-09T04:16:16;19.33;;;11.73;;
70825;SDS011;58446;41.490;22.098;2023-03-09T04:18:43;18.17;;;10.65;;
70825;SDS011;58446;41.490;22.098;2023-03-09T04:21:08;26.30;;;15.03;;
70825;SDS011;58446;41.490;22.098;2023-03-09T04:23:34;21.08;;;11.30;;
70825;SDS011;58446;41.490;22.098;2023-03-09T04:26:01;21.35;;;11.95;;
70825;SDS011;58446;41.490;22.098;2023-03-09T04:28:28;17.47;;;11.33;;
70825;SDS011;58446;41.490;22.098;2023-03-09T04:30:54;19.08;;;11.70;;
70825;SDS011;58446;41.490;22.098;2023-03-09T04:33:20;18.88;;;11.35;;
70825;SDS011;58446;41.490;22.098;2023-03-09T04:35:46;22.60;;;11.65;;
70825;SDS011;58446;41.490;22.098;2023-03-09T04:38:12;18.00;;;10.63;;
70825;SDS011;58446;41.490;22.098;2023-03-09T04:40:38;14.10;;;9.60;;
70825;SDS011;58446;41.490;22.098;2023-03-09T04:43:04;15.50;;;8.43;;
70825;SDS011;58446;41.490;22.098;2023-03-09T04:45:30;13.60;;;6.93;;
70825;SDS011;58446;41.490;22.098;2023-03-09T04:47:56;11.68;;;7.22;;
70825;SDS011;58446;41.490;22.098;2023-03-09T04:50:22;11.82;;;7.78;;
70825;SDS011;58446;41.490;22.098;2023-03-09T04:52:48;11.93;;;8.15;;
70825;SDS011;58446;41.490;22.098;2023-03-09T04:55:15;15.47;;;9.83;;
70825;SDS011;58446;41.490;22.098;2023-03-09T04:57:41;12.52;;;6.90;;
70825;SDS011;58446;41.490;22.098;2023-03-09T05:00:07;12.75;;;7.90;;
70825;SDS011;58446;41.490;22.098;2023-03-09T05:02:36;12.43;;;7.97;;
70825;SDS011;58446;41.490;22.098;2023-03-09T05:05:03;12.30;;;7.43;;
70825;SDS011;58446;41.490;22.098;2023-03-09T05:07:30;13.43;;;8.18;;
70825;SDS011;58446;41.490;22.098;2023-03-09T05:09:55;12.77;;;8.35;;
70825;SDS011;58446;41.490;22.098;2023-03-09T05:12:21;12.33;;;7.73;;
70825;SDS011;58446;41.490;22.098;2023-03-09T05:14:47;19.53;;;10.60;;
70825;SDS011;58446;41.490;22.098;2023-03-09T05:17:12;16.15;;;8.68;;
70825;SDS011;58446;41.490;22.098;2023-03-09T05:19:38;15.17;;;8.97;;
70825;SDS011;58446;41.490;22.098;2023-03-09T05:22:04;15.70;;;10.23;;
70825;SDS011;58446;41.490;22.098;2023-03-09T05:24:30;15.38;;;9.10;;
70825;SDS011;58446;41.490;22.098;2023-03-09T05:26:56;13.93;;;8.97;;
70825;SDS011;58446;41.490;22.098;2023-03-09T05:29:21;15.68;;;8.80;;
70825;SDS011;58446;41.490;22.098;2023-03-09T05:31:47;14.73;;;9.70;;
70825;SDS011;58446;41.490;22.098;2023-03-09T05:34:13;23.73;;;13.55;;
70825;SDS011;58446;41.490;22.098;2023-03-09T05:36:38;19.43;;;11.70;;
70825;SDS011;58446;41.490;22.098;2023-03-09T05:39:04;22.90;;;12.13;;
70825;SDS011;58446;41.490;22.098;2023-03-09T05:41:30;15.53;;;9.60;;
70825;SDS011;58446;41.490;22.098;2023-03-09T05:43:58;20.63;;;10.15;;
70825;SDS011;58446;41.490;22.098;2023-03-09T05:46:24;15.52;;;9.55;;
70825;SDS011;58446;41.490;22.098;2023-03-09T05:48:50;14.33;;;8.73;;
70825;SDS011;58446;41.490;22.098;2023-03-09T05:51:16;13.90;;;9.90;;
70825;SDS011;58446;41.490;22.098;2023-03-09T05:53:42;12.73;;;8.68;;
70825;SDS011;58446;41.490;22.098;2023-03-09T05:56:07;14.10;;;9.33;;
70825;SDS011;58446;41.490;22.098;2023-03-09T05:58:33;15.30;;;10.32;;
70825;SDS011;58446;41.490;22.098;2023-03-09T06:00:59;22.43;;;13.47;;
70825;SDS011;58446;41.490;22.098;2023-03-09T06:03:25;33.92;;;21.83;;
70825;SDS011;58446;41.490;22.098;2023-03-09T06:06:02;35.97;;;22.70;;
70825;SDS011;58446;41.490;22.098;2023-03-09T06:08:29;54.97;;;32.03;;
70825;SDS011;58446;41.490;22.098;2023-03-09T06:10:58;95.30;;;49.57;;
70825;SDS011;58446;41.490;22.098;2023-03-09T06:13:25;68.13;;;37.25;;
70825;SDS011;58446;41.490;22.098;2023-03-09T06:15:51;61.72;;;33.65;;
70825;SDS011;58446;41.490;22.098;2023-03-09T06:18:17;44.10;;;25.80;;
70825;SDS011;58446;41.490;22.098;2023-03-09T06:20:43;36.10;;;23.50;;
70825;SDS011;58446;41.490;22.098;2023-03-09T06:23:09;21.42;;;13.88;;
70825;SDS011;58446;41.490;22.098;2023-03-09T06:25:36;29.45;;;17.77;;
70825;SDS011;58446;41.490;22.098;2023-03-09T06:28:02;26.48;;;15.77;;
70825;SDS011;58446;41.490;22.098;2023-03-09T06:30:27;28.20;;;15.67;;
70825;SDS011;58446;41.490;22.098;2023-03-09T06:32:53;18.15;;;10.88;;
70825;SDS011;58446;41.490;22.098;2023-03-09T06:35:19;16.13;;;10.68;;
70825;SDS011;58446;41.490;22.098;2023-03-09T06:37:46;15.60;;;9.63;;
70825;SDS011;58446;41.490;22.098;2023-03-09T06:40:12;15.30;;;10.05;;
70825;SDS011;58446;41.490;22.098;2023-03-09T06:42:38;15.25;;;10.30;;
70825;SDS011;58446;41.490;22.098;2023-03-09T06:45:05;15.05;;;9.80;;
70825;SDS011;58446;41.490;22.098;2023-03-09T06:47:31;17.98;;;11.15;;
70825;SDS011;58446;41.490;22.098;2023-03-09T06:49:57;17.10;;;11.43;;
70825;SDS011;58446;41.490;22.098;2023-03-09T06:52:23;17.10;;;10.53;;
70825;SDS011;58446;41.490;22.098;2023-03-09T06:54:50;17.25;;;10.25;;
70825;SDS011;58446;41.490;22.098;2023-03-09T06:57:17;14.60;;;10.23;;
70825;SDS011;58446;41.490;22.098;2023-03-09T06:59:43;16.73;;;9.40;;
70825;SDS011;58446;41.490;22.098;2023-03-09T07:02:12;16.30;;;9.60;;
70825;SDS011;58446;41.490;22.098;2023-03-09T07:04:39;14.97;;;9.20;;
70825;SDS011;58446;41.490;22.098;2023-03-09T07:07:06;12.73;;;9.23;;
70825;SDS011;58446;41.490;22.098;2023-03-09T07:09:32;15.20;;;10.07;;
70825;SDS011;58446;41.490;22.098;2023-03-09T07:11:58;17.13;;;11.05;;
70825;SDS011;58446;41.490;22.098;2023-03-09T07:14:25;21.80;;;12.50;;
70825;SDS011;58446;41.490;22.098;2023-03-09T07:16:51;17.15;;;12.57;;
70825;SDS011;58446;41.490;22.098;2023-03-09T07:19:18;17.08;;;11.27;;
70825;SDS011;58446;41.490;22.098;2023-03-09T07:21:43;16.80;;;10.43;;
70825;SDS011;58446;41.490;22.098;2023-03-09T07:24:09;17.05;;;11.50;;
70825;SDS011;58446;41.490;22.098;2023-03-09T07:26:34;15.07;;;11.63;;
70825;SDS011;58446;41.490;22.098;2023-03-09T07:29:00;47.65;;;22.90;;
70825;SDS011;58446;41.490;22.098;2023-03-09T07:31:26;40.10;;;21.02;;
70825;SDS011;58446;41.490;22.098;2023-03-09T07:33:54;32.07;;;17.77;;
70825;SDS011;58446;41.490;22.098;2023-03-09T07:36:23;22.33;;;13.88;;
70825;SDS011;58446;41.490;22.098;2023-03-09T07:38:49;32.40;;;20.02;;
70825;SDS011;58446;41.490;22.098;2023-03-09T07:41:16;24.50;;;15.85;;
70825;SDS011;58446;41.490;22.098;2023-03-09T07:43:42;24.48;;;16.77;;
70825;SDS011;58446;41.490;22.098;2023-03-09T07:46:11;22.40;;;15.23;;
70825;SDS011;58446;41.490;22.098;2023-03-09T07:48:39;33.67;;;21.38;;
70825;SDS011;58446;41.490;22.098;2023-03-09T07:51:05;23.50;;;15.52;;
70825;SDS011;58446;41.490;22.098;2023-03-09T07:53:32;26.05;;;16.70;;
70825;SDS011;58446;41.490;22.098;2023-03-09T07:55:59;22.90;;;14.57;;
70825;SDS011;58446;41.490;22.098;2023-03-09T07:58:29;30.70;;;19.23;;
70825;SDS011;58446;41.490;22.098;2023-03-09T08:00:55;36.35;;;20.30;;
70825;SDS011;58446;41.490;22.098;2023-03-09T08:03:21;29.48;;;18.08;;
70825;SDS011;58446;41.490;22.098;2023-03-09T08:05:48;22.70;;;15.13;;
70825;SDS011;58446;41.490;22.098;2023-03-09T08:08:22;23.23;;;13.63;;
70825;SDS011;58446;41.490;22.098;2023-03-09T08:10:49;26.77;;;16.67;;
70825;SDS011;58446;41.490;22.098;2023-03-09T08:13:16;31.52;;;17.83;;
70825;SDS011;58446;41.490;22.098;2023-03-09T08:15:42;44.03;;;22.13;;
70825;SDS011;58446;41.490;22.098;2023-03-09T08:18:07;24.17;;;15.23;;
70825;SDS011;58446;41.490;22.098;2023-03-09T08:20:33;20.00;;;12.63;;
70825;SDS011;58446;41.490;22.098;2023-03-09T08:22:59;21.70;;;11.53;;
70825;SDS011;58446;41.490;22.098;2023-03-09T08:25:25;21.70;;;13.50;;
70825;SDS011;58446;41.490;22.098;2023-03-09T08:27:51;19.65;;;12.60;;
70825;SDS011;58446;41.490;22.098;2023-03-09T08:30:17;18.13;;;11.27;;
70825;SDS011;58446;41.490;22.098;2023-03-09T08:32:46;19.40;;;12.05;;
70825;SDS011;58446;41.490;22.098;2023-03-09T08:35:16;18.08;;;12.98;;
70825;SDS011;58446;41.490;22.098;2023-03-09T08:37:43;18.50;;;13.03;;
70825;SDS011;58446;41.490;22.098;2023-03-09T08:40:09;24.30;;;14.48;;
70825;SDS011;58446;41.490;22.098;2023-03-09T08:42:36;20.08;;;13.32;;
70825;SDS011;58446;41.490;22.098;2023-03-09T08:45:02;21.27;;;13.07;;
70825;SDS011;58446;41.490;22.098;2023-03-09T08:47:29;19.42;;;12.00;;
70825;SDS011;58446;41.490;22.098;2023-03-09T08:49:55;20.20;;;12.90;;
70825;SDS011;58446;41.490;22.098;2023-03-09T08:52:20;20.33;;;12.30;;
70825;SDS011;58446;41.490;22.098;2023-03-09T08:54:46;15.75;;;9.63;;
70825;SDS011;58446;41.490;22.098;2023-03-09T08:57:15;15.13;;;10.30;;
70825;SDS011;58446;41.490;22.098;2023-03-09T08:59:42;9.68;;;7.18;;
70825;SDS011;58446;41.490;22.098;2023-03-09T09:02:09;11.02;;;7.75;;
70825;SDS011;58446;41.490;22.098;2023-03-09T09:04:39;12.95;;;7.47;;
70825;SDS011;58446;41.490;22.098;2023-03-09T09:07:06;11.85;;;6.90;;
70825;SDS011;58446;41.490;22.098;2023-03-09T09:09:33;15.00;;;9.30;;
70825;SDS011;58446;41.490;22.098;2023-03-09T09:11:59;9.82;;;6.43;;
70825;SDS011;58446;41.490;22.098;2023-03-09T09:14:24;8.65;;;4.97;;
70825;SDS011;58446;41.490;22.098;2023-03-09T09:16:50;7.78;;;4.93;;
70825;SDS011;58446;41.490;22.098;2023-03-09T09:19:16;8.00;;;4.93;;
70825;SDS011;58446;41.490;22.098;2023-03-09T09:21:42;7.60;;;5.10;;
70825;SDS011;58446;41.490;22.098;2023-03-09T09:24:08;8.70;;;5.30;;
70825;SDS011;58446;41.490;22.098;2023-03-09T09:26:34;8.57;;;5.22;;
70825;SDS011;58446;41.490;22.098;2023-03-09T09:28:59;8.40;;;5.30;;
70825;SDS011;58446;41.490;22.098;2023-03-09T09:31:26;9.90;;;4.67;;
70825;SDS011;58446;41.490;22.098;2023-03-09T09:33:53;7.63;;;4.50;;
70825;SDS011;58446;41.490;22.098;2023-03-09T09:36:18;8.45;;;4.80;;
70825;SDS011;58446;41.490;22.098;2023-03-09T09:38:44;7.47;;;5.03;;
70825;SDS011;58446;41.490;22.098;2023-03-09T09:41:15;6.93;;;4.05;;
70825;SDS011;58446;41.490;22.098;2023-03-09T09:43:45;8.20;;;4.97;;
70825;SDS011;58446;41.490;22.098;2023-03-09T09:46:14;17.35;;;7.40;;
70825;SDS011;58446;41.490;22.098;2023-03-09T09:48:41;6.77;;;3.83;;
70825;SDS011;58446;41.490;22.098;2023-03-09T09:51:33;7.82;;;3.95;;
70825;SDS011;58446;41.490;22.098;2023-03-09T09:57:13;9.98;;;5.40;;
70825;SDS011;58446;41.490;22.098;2023-03-09T10:02:37;6.90;;;3.57;;
70825;SDS011;58446;41.490;22.098;2023-03-09T10:10:56;6.07;;;3.40;;
70825;SDS011;58446;41.490;22.098;2023-03-09T10:13:46;6.85;;;3.70;;
70825;SDS011;58446;41.490;22.098;2023-03-09T10:16:16;10.23;;;4.93;;
70825;SDS011;58446;41.490;22.098;2023-03-09T10:18:54;10.63;;;5.55;;
70825;SDS011;58446;41.490;22.098;2023-03-09T10:21:44;17.45;;;9.60;;
70825;SDS011;58446;41.490;22.098;2023-03-09T10:27:04;10.23;;;5.10;;
70825;SDS011;58446;41.490;22.098;2023-03-09T10:32:18;11.05;;;4.43;;
70825;SDS011;58446;41.490;22.098;2023-03-09T10:37:24;7.47;;;4.25;;
70825;SDS011;58446;41.490;22.098;2023-03-09T10:39:53;8.15;;;4.53;;
70825;SDS011;58446;41.490;22.098;2023-03-09T10:42:23;12.93;;;6.67;;
70825;SDS011;58446;41.490;22.098;2023-03-09T10:44:59;9.85;;;5.50;;
70825;SDS011;58446;41.490;22.098;2023-03-09T10:47:35;9.60;;;5.15;;
70825;SDS011;58446;41.490;22.098;2023-03-09T10:50:13;10.88;;;5.47;;
70825;SDS011;58446;41.490;22.098;2023-03-09T10:52:40;8.63;;;5.07;;
70825;SDS011;58446;41.490;22.098;2023-03-09T10:58:12;9.70;;;4.78;;
70825;SDS011;58446;41.490;22.098;2023-03-09T11:00:50;7.85;;;4.30;;
70825;SDS011;58446;41.490;22.098;2023-03-09T11:03:23;7.23;;;3.40;;
70825;SDS011;58446;41.490;22.098;2023-03-09T11:06:07;6.72;;;3.33;;
70825;SDS011;58446;41.490;22.098;2023-03-09T11:08:36;6.10;;;2.78;;
70825;SDS011;58446;41.490;22.098;2023-03-09T11:11:03;6.97;;;3.20;;
70825;SDS011;58446;41.490;22.098;2023-03-09T11:13:31;7.65;;;3.60;;
70825;SDS011;58446;41.490;22.098;2023-03-09T11:16:04;8.47;;;4.60;;
70825;SDS011;58446;41.490;22.098;2023-03-09T11:18:42;6.82;;;3.05;;
70825;SDS011;58446;41.490;22.098;2023-03-09T11:21:08;9.68;;;4.53;;
70825;SDS011;58446;41.490;22.098;2023-03-09T11:23:45;8.70;;;4.43;;
70825;SDS011;58446;41.490;22.098;2023-03-09T11:26:16;10.25;;;5.15;;
70825;SDS011;58446;41.490;22.098;2023-03-09T11:31:51;12.02;;;4.53;;
70825;SDS011;58446;41.490;22.098;2023-03-09T11:39:56;7.80;;;3.63;;
70825;SDS011;58446;41.490;22.098;2023-03-09T11:42:41;7.18;;;4.10;;
70825;SDS011;58446;41.490;22.098;2023-03-09T11:45:17;7.47;;;3.70;;
70825;SDS011;58446;41.490;22.098;2023-03-09T11:47:55;7.40;;;3.95;;
70825;SDS011;58446;41.490;22.098;2023-03-09T11:50:25;8.77;;;4.00;;
70825;SDS011;58446;41.490;22.098;2023-03-09T11:53:02;8.40;;;4.22;;
70825;SDS011;58446;41.490;22.098;2023-03-09T11:55:42;6.78;;;3.90;;
70825;SDS011;58446;41.490;22.098;2023-03-09T11:58:28;9.95;;;4.82;;
70825;SDS011;58446;41.490;22.098;2023-03-09T12:01:06;7.25;;;4.10;;
70825;SDS011;58446;41.490;22.098;2023-03-09T12:03:42;8.77;;;4.50;;
70825;SDS011;58446;41.490;22.098;2023-03-09T12:06:24;8.95;;;4.50;;
70825;SDS011;58446;41.490;22.098;2023-03-09T12:12:33;5.97;;;3.17;;
70825;SDS011;58446;41.490;22.098;2023-03-09T12:15:18;6.57;;;2.95;;
70825;SDS011;58446;41.490;22.098;2023-03-09T12:17:58;6.53;;;3.47;;
70825;SDS011;58446;41.490;22.098;2023-03-09T12:23:38;9.10;;;5.43;;
70825;SDS011;58446;41.490;22.098;2023-03-09T12:26:01;9.18;;;4.25;;
70825;SDS011;58446;41.490;22.098;2023-03-09T12:28:42;7.72;;;4.10;;
70825;SDS011;58446;41.490;22.098;2023-03-09T12:31:27;10.07;;;5.07;;
70825;SDS011;58446;41.490;22.098;2023-03-09T12:34:01;12.68;;;6.20;;
70825;SDS011;58446;41.490;22.098;2023-03-09T12:36:31;11.23;;;6.32;;
70825;SDS011;58446;41.490;22.098;2023-03-09T12:49:45;10.48;;;5.32;;
70825;SDS011;58446;41.490;22.098;2023-03-09T12:52:26;13.43;;;7.85;;
70825;SDS011;58446;41.490;22.098;2023-03-09T12:55:00;10.17;;;5.73;;
70825;SDS011;58446;41.490;22.098;2023-03-09T12:57:28;11.30;;;5.60;;
70825;SDS011;58446;41.490;22.098;2023-03-09T12:59:54;9.68;;;4.95;;
70825;SDS011;58446;41.490;22.098;2023-03-09T13:02:24;9.03;;;3.57;;
70825;SDS011;58446;41.490;22.098;2023-03-09T13:07:50;9.20;;;4.82;;
70825;SDS011;58446;41.490;22.098;2023-03-09T13:10:23;8.63;;;4.00;;
70825;SDS011;58446;41.490;22.098;2023-03-09T13:12:56;10.95;;;5.70;;
70825;SDS011;58446;41.490;22.098;2023-03-09T13:15:41;24.13;;;13.27;;
70825;SDS011;58446;41.490;22.098;2023-03-09T13:20:49;16.50;;;10.20;;
70825;SDS011;58446;41.490;22.098;2023-03-09T13:23:15;9.80;;;5.27;;
70825;SDS011;58446;41.490;22.098;2023-03-09T13:25:47;13.70;;;7.70;;
70825;SDS011;58446;41.490;22.098;2023-03-09T13:28:36;10.77;;;6.55;;
70825;SDS011;58446;41.490;22.098;2023-03-09T13:31:06;11.07;;;6.03;;
70825;SDS011;58446;41.490;22.098;2023-03-09T13:33:42;11.23;;;6.50;;
70825;SDS011;58446;41.490;22.098;2023-03-09T13:38:39;9.30;;;5.53;;
70825;SDS011;58446;41.490;22.098;2023-03-09T13:41:18;10.48;;;5.45;;
70825;SDS011;58446;41.490;22.098;2023-03-09T13:43:47;11.73;;;7.40;;
70825;SDS011;58446;41.490;22.098;2023-03-09T13:46:16;10.97;;;6.47;;
70825;SDS011;58446;41.490;22.098;2023-03-09T13:48:59;8.18;;;5.18;;
70825;SDS011;58446;41.490;22.098;2023-03-09T13:54:28;11.93;;;8.23;;
70825;SDS011;58446;41.490;22.098;2023-03-09T13:57:03;13.18;;;7.20;;
70825;SDS011;58446;41.490;22.098;2023-03-09T14:02:24;8.45;;;4.30;;
70825;SDS011;58446;41.490;22.098;2023-03-09T14:07:23;8.45;;;4.80;;
70825;SDS011;58446;41.490;22.098;2023-03-09T14:10:01;11.07;;;6.30;;
70825;SDS011;58446;41.490;22.098;2023-03-09T14:12:34;8.60;;;4.70;;
70825;SDS011;58446;41.490;22.098;2023-03-09T14:15:04;10.38;;;5.20;;
70825;SDS011;58446;41.490;22.098;2023-03-09T14:17:34;10.60;;;4.70;;
70825;SDS011;58446;41.490;22.098;2023-03-09T14:20:00;11.48;;;5.30;;
70825;SDS011;58446;41.490;22.098;2023-03-09T14:22:28;9.57;;;5.30;;
70825;SDS011;58446;41.490;22.098;2023-03-09T14:24:54;10.30;;;5.90;;
70825;SDS011;58446;41.490;22.098;2023-03-09T14:27:30;13.32;;;8.50;;
70825;SDS011;58446;41.490;22.098;2023-03-09T14:29:57;19.75;;;9.50;;
70825;SDS011;58446;41.490;22.098;2023-03-09T14:33:05;14.90;;;7.25;;
70825;SDS011;58446;41.490;22.098;2023-03-09T14:35:31;16.93;;;8.67;;
70825;SDS011;58446;41.490;22.098;2023-03-09T14:38:00;17.92;;;8.77;;
70825;SDS011;58446;41.490;22.098;2023-03-09T14:40:30;23.58;;;12.63;;
70825;SDS011;58446;41.490;22.098;2023-03-09T14:45:46;23.30;;;12.50;;
70825;SDS011;58446;41.490;22.098;2023-03-09T14:48:13;19.23;;;10.57;;
70825;SDS011;58446;41.490;22.098;2023-03-09T14:50:39;48.90;;;34.95;;
70825;SDS011;58446;41.490;22.098;2023-03-09T14:53:04;25.97;;;15.87;;
70825;SDS011;58446;41.490;22.098;2023-03-09T14:55:30;20.50;;;13.10;;
70825;SDS011;58446;41.490;22.098;2023-03-09T14:57:57;22.42;;;14.50;;
70825;SDS011;58446;41.490;22.098;2023-03-09T15:00:23;21.43;;;13.23;;
70825;SDS011;58446;41.490;22.098;2023-03-09T15:02:50;21.08;;;15.27;;
70825;SDS011;58446;41.490;22.098;2023-03-09T15:05:21;19.00;;;12.95;;
70825;SDS011;58446;41.490;22.098;2023-03-09T15:07:48;17.33;;;12.20;;
70825;SDS011;58446;41.490;22.098;2023-03-09T15:10:14;18.90;;;12.57;;
70825;SDS011;58446;41.490;22.098;2023-03-09T15:12:41;18.63;;;13.50;;
70825;SDS011;58446;41.490;22.098;2023-03-09T15:15:14;21.40;;;14.40;;
70825;SDS011;58446;41.490;22.098;2023-03-09T15:17:43;25.48;;;16.23;;
70825;SDS011;58446;41.490;22.098;2023-03-09T15:20:12;25.07;;;17.27;;
70825;SDS011;58446;41.490;22.098;2023-03-09T15:22:43;32.28;;;20.33;;
70825;SDS011;58446;41.490;22.098;2023-03-09T15:25:10;24.27;;;16.40;;
70825;SDS011;58446;41.490;22.098;2023-03-09T15:27:38;23.77;;;16.23;;
70825;SDS011;58446;41.490;22.098;2023-03-09T15:30:04;33.25;;;22.10;;
70825;SDS011;58446;41.490;22.098;2023-03-09T15:32:30;31.73;;;19.73;;
70825;SDS011;58446;41.490;22.098;2023-03-09T15:34:56;33.35;;;21.15;;
70825;SDS011;58446;41.490;22.098;2023-03-09T15:37:21;31.07;;;23.17;;
70825;SDS011;58446;41.490;22.098;2023-03-09T15:39:47;36.03;;;24.48;;
70825;SDS011;58446;41.490;22.098;2023-03-09T15:42:13;70.03;;;43.70;;
70825;SDS011;58446;41.490;22.098;2023-03-09T15:44:38;41.85;;;26.85;;
70825;SDS011;58446;41.490;22.098;2023-03-09T15:47:04;37.93;;;24.40;;